createdAt,value
2023-05-06T00:02:08.536Z,9.48
2023-05-06T00:07:05.723Z,10.27
2023-05-06T00:12:02.873Z,9.30
2023-05-06T00:17:00.140Z,9.13
2023-05-06T00:21:58.960Z,10.25
2023-05-06T00:26:58.843Z,9.68
2023-05-06T00:31:55.953Z,8.70
2023-05-06T00:36:53.031Z,9.63
2023-05-06T00:41:50.890Z,8.90
2023-05-06T00:46:47.989Z,8.80
2023-05-06T00:51:45.141Z,9.35
2023-05-06T00:56:42.936Z,8.45
2023-05-06T01:01:41.013Z,9.45
2023-05-06T01:06:45.197Z,9.20
2023-05-06T01:11:49.861Z,9.18
2023-05-06T01:16:53.759Z,9.70
2023-05-06T01:21:54.586Z,10.52
2023-05-06T01:26:52.230Z,9.35
2023-05-06T01:31:52.299Z,9.25
2023-05-06T01:37:04.665Z,9.18
2023-05-06T01:42:03.425Z,9.80
2023-05-06T01:47:01.787Z,11.27
2023-05-06T01:51:58.732Z,9.98
2023-05-06T01:56:55.666Z,10.10
2023-05-06T02:01:53.400Z,9.80
2023-05-06T02:06:50.351Z,10.77
2023-05-06T02:11:48.679Z,11.48
2023-05-06T02:16:46.077Z,10.57
2023-05-06T02:21:44.848Z,11.00
2023-05-06T02:26:41.875Z,10.60
2023-05-06T02:31:38.954Z,12.43
2023-05-06T02:36:37.945Z,11.80
2023-05-06T02:41:35.727Z,10.73
2023-05-06T02:46:34.824Z,11.82
2023-05-06T02:51:34.242Z,10.70
2023-05-06T02:56:31.295Z,11.85
2023-05-06T03:01:29.228Z,12.75
2023-05-06T03:06:26.547Z,12.38
2023-05-06T03:11:23.869Z,11.73
2023-05-06T03:16:20.995Z,12.65
2023-05-06T03:21:25.632Z,12.50
2023-05-06T03:26:23.619Z,12.68
2023-05-06T03:31:20.924Z,12.90
2023-05-06T03:36:24.642Z,12.93
2023-05-06T03:46:22.356Z,14.30
2023-05-06T03:51:19.987Z,12.98
2023-05-06T03:56:23.548Z,13.30
2023-05-06T04:01:23.787Z,11.52
2023-05-06T04:06:22.491Z,10.68
2023-05-06T04:11:20.364Z,13.95
2023-05-06T04:16:23.208Z,12.80
2023-05-06T04:21:23.196Z,13.13
2023-05-06T04:26:29.668Z,12.57
2023-05-06T04:31:29.261Z,12.07
2023-05-06T04:36:40.020Z,12.57
2023-05-06T04:41:56.615Z,12.27
2023-05-06T04:51:58.770Z,11.93
2023-05-06T04:57:01.722Z,11.68
2023-05-06T05:01:59.870Z,10.93
2023-05-06T05:06:58.074Z,10.52
2023-05-06T05:11:55.848Z,9.68
2023-05-06T05:16:57.603Z,9.93
2023-05-06T05:21:57.330Z,11.07
2023-05-06T05:26:58.989Z,9.57
2023-05-06T05:32:00.609Z,9.35
2023-05-06T05:37:01.631Z,9.35
2023-05-06T05:41:59.898Z,10.40
2023-05-06T05:46:58.417Z,8.25
2023-05-06T05:51:57.736Z,8.15
2023-05-06T05:56:59.627Z,7.38
2023-05-06T06:02:01.973Z,6.43
2023-05-06T06:07:01.347Z,6.75
2023-05-06T06:12:07.186Z,6.78
2023-05-06T06:17:10.202Z,6.50
2023-05-06T06:22:07.409Z,6.93
2023-05-06T06:27:07.805Z,5.88
2023-05-06T06:32:06.640Z,6.60
2023-05-06T06:37:07.855Z,6.85
2023-05-06T06:42:06.385Z,6.57
2023-05-06T06:47:09.548Z,6.93
2023-05-06T06:52:13.555Z,7.30
2023-05-06T06:57:11.198Z,6.90
2023-05-06T07:02:10.792Z,6.50
2023-05-06T07:07:08.801Z,6.10
2023-05-06T07:12:06.518Z,6.00
2023-05-06T07:17:03.935Z,5.80
2023-05-06T07:22:02.433Z,5.60
2023-05-06T07:27:03.690Z,6.13
2023-05-06T07:32:00.841Z,5.05
2023-05-06T07:37:04.039Z,5.63
2023-05-06T07:42:01.994Z,6.07
2023-05-06T07:46:59.269Z,5.50
2023-05-06T07:51:58.660Z,5.18
2023-05-06T07:56:58.440Z,4.50
2023-05-06T08:02:05.530Z,4.75
2023-05-06T08:07:06.431Z,4.85
2023-05-06T08:12:21.825Z,4.00
2023-05-06T08:17:35.501Z,4.32
2023-05-06T08:22:42.083Z,4.45
2023-05-06T08:28:13.828Z,3.70
2023-05-06T08:33:42.427Z,4.20
2023-05-06T08:43:59.192Z,4.25
2023-05-06T08:54:57.974Z,4.65
2023-05-06T09:00:07.110Z,5.75
2023-05-06T09:05:11.862Z,4.97
2023-05-06T09:10:22.861Z,4.40
2023-05-06T09:15:24.743Z,3.80
2023-05-06T09:20:23.194Z,4.50
2023-05-06T09:25:26.951Z,4.32
2023-05-06T09:31:00.208Z,4.27
2023-05-06T09:36:36.506Z,4.95
2023-05-06T09:41:37.837Z,4.18
2023-05-06T09:46:39.082Z,4.38
2023-05-06T09:51:47.589Z,3.97
2023-05-06T09:56:56.313Z,5.38
2023-05-06T10:02:08.269Z,4.03
2023-05-06T10:07:12.544Z,3.70
2023-05-06T10:12:10.804Z,4.35
2023-05-06T10:17:21.056Z,4.30
2023-05-06T10:22:31.186Z,4.32
2023-05-06T10:27:36.176Z,4.43
2023-05-06T10:32:33.296Z,3.75
2023-05-06T10:37:36.727Z,4.60
2023-05-06T10:42:34.755Z,4.13
2023-05-06T10:48:11.102Z,4.25
2023-05-06T10:53:20.252Z,5.57
2023-05-06T10:58:22.665Z,4.25
2023-05-06T11:03:25.631Z,4.53
2023-05-06T11:08:33.335Z,4.18
2023-05-06T11:13:39.932Z,4.82
2023-05-06T11:18:49.412Z,4.43
2023-05-06T11:24:16.678Z,4.03
2023-05-06T11:29:17.249Z,4.75
2023-05-06T11:34:21.526Z,4.72
2023-05-06T11:39:19.552Z,4.05
2023-05-06T11:44:32.364Z,4.53
2023-05-06T11:49:58.716Z,4.78
2023-05-06T11:54:56.798Z,4.78
2023-05-06T11:59:57.043Z,6.03
2023-05-06T12:04:54.333Z,5.25
2023-05-06T12:09:54.993Z,4.30
2023-05-06T12:15:06.915Z,4.70
2023-05-06T12:20:09.759Z,3.65
2023-05-06T12:25:14.422Z,4.18
2023-05-06T12:30:13.678Z,3.28
2023-05-06T12:35:26.163Z,3.10
2023-05-06T12:40:32.543Z,3.78
2023-05-06T12:45:33.217Z,3.88
2023-05-06T12:50:39.681Z,3.40
2023-05-06T12:55:51.691Z,3.50
2023-05-06T13:00:51.953Z,3.28
2023-05-06T13:05:51.431Z,3.67
2023-05-06T13:10:48.612Z,3.72
2023-05-06T13:15:56.639Z,4.00
2023-05-06T13:20:57.811Z,3.20
2023-05-06T13:26:04.831Z,3.08
2023-05-06T13:31:08.204Z,3.53
2023-05-06T13:36:09.566Z,3.30
2023-05-06T13:41:20.990Z,3.85
2023-05-06T13:46:38.624Z,3.40
2023-05-06T13:51:41.615Z,3.63
2023-05-06T13:56:44.330Z,3.00
2023-05-06T14:01:44.250Z,2.78
2023-05-06T14:06:43.566Z,3.83
2023-05-06T14:11:42.025Z,3.78
2023-05-06T14:16:44.092Z,3.60
2023-05-06T14:21:42.950Z,3.00
2023-05-06T14:26:44.338Z,3.33
2023-05-06T14:31:47.105Z,3.63
2023-05-06T14:36:50.005Z,3.10
2023-05-06T14:41:48.500Z,3.10
2023-05-06T14:46:55.591Z,3.10
2023-05-06T14:51:53.774Z,3.30
2023-05-06T14:57:02.590Z,3.08
2023-05-06T15:02:00.005Z,3.35
2023-05-06T15:07:00.604Z,3.65
2023-05-06T15:12:01.343Z,3.13
2023-05-06T15:17:06.740Z,2.80
2023-05-06T15:22:04.785Z,3.63
2023-05-06T15:27:02.418Z,3.13
2023-05-06T15:31:59.589Z,2.47
2023-05-06T15:37:01.117Z,2.58
2023-05-06T15:41:59.454Z,2.80
2023-05-06T15:46:57.800Z,3.03
2023-05-06T15:52:06.954Z,2.75
2023-05-06T15:57:14.874Z,3.20
2023-05-06T16:02:26.351Z,2.38
2023-05-06T16:07:25.938Z,2.88
2023-05-06T16:12:26.745Z,3.08
2023-05-06T16:17:27.739Z,2.63
2023-05-06T16:22:30.943Z,2.45
2023-05-06T16:27:33.185Z,2.23
2023-05-06T16:32:36.658Z,2.40
2023-05-06T16:37:34.713Z,2.55
2023-05-06T16:42:54.440Z,2.10
2023-05-06T16:47:55.068Z,2.70
2023-05-06T16:53:00.320Z,2.28
2023-05-06T16:58:05.473Z,2.22
2023-05-06T17:03:03.198Z,2.08
2023-05-06T17:08:03.610Z,2.03
2023-05-06T17:13:12.068Z,1.85
2023-05-06T17:18:09.286Z,2.50
2023-05-06T17:23:09.634Z,2.45
2023-05-06T17:28:15.187Z,2.30
2023-05-06T17:33:13.317Z,2.63
2023-05-06T17:38:18.471Z,1.77
2023-05-06T17:43:17.755Z,2.05
2023-05-06T17:48:15.062Z,2.03
2023-05-06T17:53:12.346Z,2.60
2023-05-06T17:58:12.809Z,2.85
2023-05-06T18:03:14.482Z,2.40
2023-05-06T18:08:43.243Z,2.35
2023-05-06T18:13:53.902Z,2.50
2023-05-06T18:19:02.256Z,2.42
2023-05-06T18:24:16.438Z,2.63
2023-05-06T18:29:14.146Z,2.50
2023-05-06T18:34:22.250Z,2.92
2023-05-06T18:39:25.558Z,2.83
2023-05-06T18:44:22.664Z,2.95
2023-05-06T18:49:23.586Z,3.33
2023-05-06T18:54:26.380Z,3.10
2023-05-06T18:59:28.057Z,3.60
2023-05-06T19:04:29.573Z,2.50
2023-05-06T19:09:36.465Z,2.20
2023-05-06T19:14:36.503Z,2.20
2023-05-06T19:20:00.248Z,2.60
2023-05-06T19:25:03.090Z,2.80
2023-05-06T19:30:15.927Z,3.10
2023-05-06T19:35:17.049Z,3.08
2023-05-06T19:40:19.014Z,3.50
2023-05-06T19:45:21.217Z,2.88
2023-05-06T19:50:19.281Z,3.42
2023-05-06T19:55:16.457Z,3.10
2023-05-06T20:00:17.781Z,3.97
2023-05-06T20:05:14.840Z,3.85
2023-05-06T20:10:14.295Z,3.05
2023-05-06T20:15:12.136Z,4.03
2023-05-06T20:20:11.173Z,3.80
2023-05-06T20:25:19.721Z,3.15
2023-05-06T20:30:16.890Z,3.10
2023-05-06T20:35:13.984Z,3.60
2023-05-06T20:40:12.136Z,3.33
2023-05-06T20:45:13.152Z,4.30
2023-05-06T20:50:16.429Z,3.85
2023-05-06T20:55:16.369Z,3.60
2023-05-06T21:00:15.120Z,3.75
2023-05-06T21:05:15.207Z,3.50
2023-05-06T21:10:12.441Z,3.92
2023-05-06T21:15:15.682Z,3.40
2023-05-06T21:20:16.248Z,3.83
2023-05-06T21:25:31.116Z,3.30
2023-05-06T21:30:30.615Z,3.80
2023-05-06T21:35:32.219Z,3.42
2023-05-06T21:40:30.615Z,3.45
2023-05-06T21:45:33.181Z,2.75
2023-05-06T21:50:37.971Z,3.55
2023-05-06T21:55:37.059Z,2.78
2023-05-06T22:00:40.068Z,3.10
2023-05-06T22:06:09.865Z,3.92
2023-05-06T22:18:24.626Z,3.42
2023-05-06T22:23:28.551Z,4.05
2023-05-06T22:28:30.293Z,3.58
2023-05-06T22:33:28.362Z,2.92
2023-05-06T22:38:25.555Z,3.50
2023-05-06T22:43:22.851Z,3.95
2023-05-06T22:48:23.197Z,3.80
2023-05-06T22:53:20.851Z,3.35
2023-05-06T22:58:19.071Z,3.70
2023-05-06T23:03:17.908Z,3.20
2023-05-06T23:08:15.716Z,3.17
2023-05-06T23:13:13.526Z,3.85
2023-05-06T23:18:10.674Z,3.83
2023-05-06T23:23:10.168Z,3.38
2023-05-06T23:28:08.895Z,2.70
2023-05-06T23:33:08.428Z,3.38
2023-05-06T23:38:05.794Z,3.15
2023-05-06T23:43:03.991Z,3.13
2023-05-06T23:48:01.102Z,3.80
2023-05-06T23:52:59.007Z,3.08
2023-05-06T23:57:57.837Z,3.05
